sensor_id;sensor_type;location;lat;lon;timestamp;temperature;humidity
22098;DHT22;11215;51.938;8.464;2022-07-21T00:00:56;25.60;51.00
22098;DHT22;11215;51.938;8.464;2022-07-21T00:03:21;25.50;51.40
22098;DHT22;11215;51.938;8.464;2022-07-21T00:05:47;25.40;51.80
22098;DHT22;11215;51.938;8.464;2022-07-21T00:08:13;25.30;52.30
22098;DHT22;11215;51.938;8.464;2022-07-21T00:10:39;25.30;52.70
22098;DHT22;11215;51.938;8.464;2022-07-21T00:13:05;25.20;53.00
22098;DHT22;11215;51.938;8.464;2022-07-21T00:15:31;25.20;53.20
22098;DHT22;11215;51.938;8.464;2022-07-21T00:17:57;25.20;53.50
22098;DHT22;11215;51.938;8.464;2022-07-21T00:20:24;25.20;53.70
22098;DHT22;11215;51.938;8.464;2022-07-21T00:22:49;25.30;53.90
22098;DHT22;11215;51.938;8.464;2022-07-21T00:25:16;25.30;53.60
22098;DHT22;11215;51.938;8.464;2022-07-21T00:27:42;25.30;54.00
22098;DHT22;11215;51.938;8.464;2022-07-21T00:30:09;25.30;54.20
22098;DHT22;11215;51.938;8.464;2022-07-21T00:32:37;25.40;54.60
22098;DHT22;11215;51.938;8.464;2022-07-21T00:35:04;25.40;55.00
22098;DHT22;11215;51.938;8.464;2022-07-21T00:37:30;25.40;55.00
22098;DHT22;11215;51.938;8.464;2022-07-21T00:39:56;25.40;54.60
22098;DHT22;11215;51.938;8.464;2022-07-21T00:42:28;25.50;54.20
22098;DHT22;11215;51.938;8.464;2022-07-21T00:44:54;25.50;55.00
22098;DHT22;11215;51.938;8.464;2022-07-21T00:47:24;25.60;54.70
22098;DHT22;11215;51.938;8.464;2022-07-21T00:49:50;25.50;54.90
22098;DHT22;11215;51.938;8.464;2022-07-21T00:52:16;25.50;55.10
22098;DHT22;11215;51.938;8.464;2022-07-21T00:54:43;25.60;55.20
22098;DHT22;11215;51.938;8.464;2022-07-21T00:57:09;25.60;55.10
22098;DHT22;11215;51.938;8.464;2022-07-21T00:59:35;25.60;55.30
22098;DHT22;11215;51.938;8.464;2022-07-21T01:02:01;25.60;55.30
22098;DHT22;11215;51.938;8.464;2022-07-21T01:04:26;25.60;55.30
22098;DHT22;11215;51.938;8.464;2022-07-21T01:06:53;25.60;55.50
22098;DHT22;11215;51.938;8.464;2022-07-21T01:09:20;25.60;55.40
22098;DHT22;11215;51.938;8.464;2022-07-21T01:11:46;25.60;55.30
22098;DHT22;11215;51.938;8.464;2022-07-21T01:14:12;25.60;55.20
22098;DHT22;11215;51.938;8.464;2022-07-21T01:16:37;25.60;55.30
22098;DHT22;11215;51.938;8.464;2022-07-21T01:19:05;25.60;55.30
22098;DHT22;11215;51.938;8.464;2022-07-21T01:21:36;25.60;55.60
22098;DHT22;11215;51.938;8.464;2022-07-21T01:24:04;25.60;56.10
22098;DHT22;11215;51.938;8.464;2022-07-21T01:26:30;25.70;55.60
22098;DHT22;11215;51.938;8.464;2022-07-21T01:28:57;25.70;55.30
22098;DHT22;11215;51.938;8.464;2022-07-21T01:31:23;25.60;55.30
22098;DHT22;11215;51.938;8.464;2022-07-21T01:33:49;25.60;55.40
22098;DHT22;11215;51.938;8.464;2022-07-21T01:36:16;25.60;55.70
22098;DHT22;11215;51.938;8.464;2022-07-21T01:38:42;25.60;55.70
22098;DHT22;11215;51.938;8.464;2022-07-21T01:41:26;25.50;55.60
22098;DHT22;11215;51.938;8.464;2022-07-21T01:43:57;25.50;55.60
22098;DHT22;11215;51.938;8.464;2022-07-21T01:46:24;25.50;55.70
22098;DHT22;11215;51.938;8.464;2022-07-21T01:48:50;25.40;56.00
22098;DHT22;11215;51.938;8.464;2022-07-21T01:51:15;25.40;56.20
22098;DHT22;11215;51.938;8.464;2022-07-21T01:53:43;25.40;56.30
22098;DHT22;11215;51.938;8.464;2022-07-21T01:56:08;25.40;56.30
22098;DHT22;11215;51.938;8.464;2022-07-21T01:58:34;25.40;56.40
22098;DHT22;11215;51.938;8.464;2022-07-21T02:01:00;25.40;56.40
22098;DHT22;11215;51.938;8.464;2022-07-21T02:03:26;25.40;56.40
22098;DHT22;11215;51.938;8.464;2022-07-21T02:05:52;25.40;56.90
22098;DHT22;11215;51.938;8.464;2022-07-21T02:08:17;25.40;57.10
22098;DHT22;11215;51.938;8.464;2022-07-21T02:10:43;25.40;57.20
22098;DHT22;11215;51.938;8.464;2022-07-21T02:13:08;25.40;57.20
22098;DHT22;11215;51.938;8.464;2022-07-21T02:15:34;25.40;57.40
22098;DHT22;11215;51.938;8.464;2022-07-21T02:18:00;25.40;57.50
22098;DHT22;11215;51.938;8.464;2022-07-21T02:20:26;25.40;57.50
22098;DHT22;11215;51.938;8.464;2022-07-21T02:22:52;25.40;57.30
22098;DHT22;11215;51.938;8.464;2022-07-21T02:25:18;25.40;57.50
22098;DHT22;11215;51.938;8.464;2022-07-21T02:27:45;25.40;57.60
22098;DHT22;11215;51.938;8.464;2022-07-21T02:30:12;25.40;57.70
22098;DHT22;11215;51.938;8.464;2022-07-21T02:32:38;25.40;57.90
22098;DHT22;11215;51.938;8.464;2022-07-21T02:35:04;25.40;57.70
22098;DHT22;11215;51.938;8.464;2022-07-21T02:37:30;25.40;57.90
22098;DHT22;11215;51.938;8.464;2022-07-21T02:39:56;25.40;57.80
22098;DHT22;11215;51.938;8.464;2022-07-21T02:42:21;25.40;57.80
22098;DHT22;11215;51.938;8.464;2022-07-21T02:44:47;25.40;57.80
22098;DHT22;11215;51.938;8.464;2022-07-21T02:47:13;25.40;57.80
22098;DHT22;11215;51.938;8.464;2022-07-21T02:49:38;25.40;57.90
22098;DHT22;11215;51.938;8.464;2022-07-21T02:52:04;25.30;57.80
22098;DHT22;11215;51.938;8.464;2022-07-21T02:54:31;25.30;58.10
22098;DHT22;11215;51.938;8.464;2022-07-21T02:56:56;25.30;58.20
22098;DHT22;11215;51.938;8.464;2022-07-21T02:59:22;25.30;58.30
22098;DHT22;11215;51.938;8.464;2022-07-21T03:01:48;25.30;58.30
22098;DHT22;11215;51.938;8.464;2022-07-21T03:04:13;25.30;58.20
22098;DHT22;11215;51.938;8.464;2022-07-21T03:06:39;25.30;58.20
22098;DHT22;11215;51.938;8.464;2022-07-21T03:09:05;25.30;57.80
22098;DHT22;11215;51.938;8.464;2022-07-21T03:11:30;25.20;57.50
22098;DHT22;11215;51.938;8.464;2022-07-21T03:13:56;25.20;57.60
22098;DHT22;11215;51.938;8.464;2022-07-21T03:16:22;25.00;57.50
22098;DHT22;11215;51.938;8.464;2022-07-21T03:18:47;25.00;57.60
22098;DHT22;11215;51.938;8.464;2022-07-21T03:21:13;24.90;57.70
22098;DHT22;11215;51.938;8.464;2022-07-21T03:23:39;24.80;57.90
22098;DHT22;11215;51.938;8.464;2022-07-21T03:26:05;24.80;58.10
22098;DHT22;11215;51.938;8.464;2022-07-21T03:28:30;24.70;58.10
22098;DHT22;11215;51.938;8.464;2022-07-21T03:30:56;24.60;58.30
22098;DHT22;11215;51.938;8.464;2022-07-21T03:33:22;24.60;58.40
22098;DHT22;11215;51.938;8.464;2022-07-21T03:35:48;24.50;58.50
22098;DHT22;11215;51.938;8.464;2022-07-21T03:38:13;24.40;58.70
22098;DHT22;11215;51.938;8.464;2022-07-21T03:40:39;24.40;58.90
22098;DHT22;11215;51.938;8.464;2022-07-21T03:43:06;24.40;59.10
22098;DHT22;11215;51.938;8.464;2022-07-21T03:45:33;24.40;59.20
22098;DHT22;11215;51.938;8.464;2022-07-21T03:48:01;24.30;59.30
22098;DHT22;11215;51.938;8.464;2022-07-21T03:50:28;24.30;59.50
22098;DHT22;11215;51.938;8.464;2022-07-21T03:52:54;24.20;59.40
22098;DHT22;11215;51.938;8.464;2022-07-21T03:55:21;24.20;59.00
22098;DHT22;11215;51.938;8.464;2022-07-21T03:57:57;24.10;59.00
22098;DHT22;11215;51.938;8.464;2022-07-21T04:00:27;24.10;59.90
22098;DHT22;11215;51.938;8.464;2022-07-21T04:02:53;24.00;59.30
22098;DHT22;11215;51.938;8.464;2022-07-21T04:05:20;23.90;59.30
22098;DHT22;11215;51.938;8.464;2022-07-21T04:07:51;23.80;59.60
22098;DHT22;11215;51.938;8.464;2022-07-21T04:10:21;23.80;60.60
22098;DHT22;11215;51.938;8.464;2022-07-21T04:12:48;23.80;60.20
22098;DHT22;11215;51.938;8.464;2022-07-21T04:15:14;23.70;60.00
22098;DHT22;11215;51.938;8.464;2022-07-21T04:17:40;23.70;60.30
22098;DHT22;11215;51.938;8.464;2022-07-21T04:20:07;23.70;60.50
22098;DHT22;11215;51.938;8.464;2022-07-21T04:22:33;23.60;60.80
22098;DHT22;11215;51.938;8.464;2022-07-21T04:24:59;23.60;60.80
22098;DHT22;11215;51.938;8.464;2022-07-21T04:27:26;23.60;60.80
22098;DHT22;11215;51.938;8.464;2022-07-21T04:29:51;23.60;61.80
22098;DHT22;11215;51.938;8.464;2022-07-21T04:32:17;23.50;60.80
22098;DHT22;11215;51.938;8.464;2022-07-21T04:34:43;23.50;60.80
22098;DHT22;11215;51.938;8.464;2022-07-21T04:37:09;23.50;61.00
22098;DHT22;11215;51.938;8.464;2022-07-21T04:39:34;23.50;61.30
22098;DHT22;11215;51.938;8.464;2022-07-21T04:42:00;23.50;61.40
22098;DHT22;11215;51.938;8.464;2022-07-21T04:44:25;23.50;61.30
22098;DHT22;11215;51.938;8.464;2022-07-21T04:46:51;23.50;61.40
22098;DHT22;11215;51.938;8.464;2022-07-21T04:49:17;23.50;62.40
22098;DHT22;11215;51.938;8.464;2022-07-21T04:51:42;23.60;61.90
22098;DHT22;11215;51.938;8.464;2022-07-21T04:54:08;23.60;62.10
22098;DHT22;11215;51.938;8.464;2022-07-21T04:56:34;23.60;62.20
22098;DHT22;11215;51.938;8.464;2022-07-21T04:59:01;23.70;62.20
22098;DHT22;11215;51.938;8.464;2022-07-21T05:01:26;23.70;62.40
22098;DHT22;11215;51.938;8.464;2022-07-21T05:03:52;23.70;62.40
22098;DHT22;11215;51.938;8.464;2022-07-21T05:06:18;23.80;62.40
22098;DHT22;11215;51.938;8.464;2022-07-21T05:08:44;23.80;62.50
22098;DHT22;11215;51.938;8.464;2022-07-21T05:11:09;23.80;62.50
22098;DHT22;11215;51.938;8.464;2022-07-21T05:13:35;23.80;62.40
22098;DHT22;11215;51.938;8.464;2022-07-21T05:16:01;23.90;62.60
22098;DHT22;11215;51.938;8.464;2022-07-21T05:18:26;23.90;62.50
22098;DHT22;11215;51.938;8.464;2022-07-21T05:20:52;23.90;62.40
22098;DHT22;11215;51.938;8.464;2022-07-21T05:23:17;24.00;62.40
22098;DHT22;11215;51.938;8.464;2022-07-21T05:25:43;24.00;62.40
22098;DHT22;11215;51.938;8.464;2022-07-21T05:28:08;24.00;62.40
22098;DHT22;11215;51.938;8.464;2022-07-21T05:30:34;24.10;62.60
22098;DHT22;11215;51.938;8.464;2022-07-21T05:33:01;24.10;63.30
22098;DHT22;11215;51.938;8.464;2022-07-21T05:35:26;24.20;64.10
22098;DHT22;11215;51.938;8.464;2022-07-21T05:37:52;24.40;64.50
22098;DHT22;11215;51.938;8.464;2022-07-21T05:40:17;24.60;65.00
22098;DHT22;11215;51.938;8.464;2022-07-21T05:42:44;24.90;65.30
22098;DHT22;11215;51.938;8.464;2022-07-21T05:45:10;25.10;65.20
22098;DHT22;11215;51.938;8.464;2022-07-21T05:47:37;25.50;64.80
22098;DHT22;11215;51.938;8.464;2022-07-21T05:50:03;25.90;64.40
22098;DHT22;11215;51.938;8.464;2022-07-21T05:52:29;26.30;63.30
22098;DHT22;11215;51.938;8.464;2022-07-21T05:54:54;26.60;61.70
22098;DHT22;11215;51.938;8.464;2022-07-21T05:57:20;26.90;60.30
22098;DHT22;11215;51.938;8.464;2022-07-21T05:59:45;27.00;59.10
22098;DHT22;11215;51.938;8.464;2022-07-21T06:02:11;27.10;58.30
22098;DHT22;11215;51.938;8.464;2022-07-21T06:04:37;27.10;57.80
22098;DHT22;11215;51.938;8.464;2022-07-21T06:07:03;27.10;57.20
22098;DHT22;11215;51.938;8.464;2022-07-21T06:09:28;27.00;57.00
22098;DHT22;11215;51.938;8.464;2022-07-21T06:11:54;26.90;56.60
22098;DHT22;11215;51.938;8.464;2022-07-21T06:14:20;26.80;56.30
22098;DHT22;11215;51.938;8.464;2022-07-21T06:16:46;26.70;56.50
22098;DHT22;11215;51.938;8.464;2022-07-21T06:19:11;26.60;56.40
22098;DHT22;11215;51.938;8.464;2022-07-21T06:21:37;26.40;56.70
22098;DHT22;11215;51.938;8.464;2022-07-21T06:24:03;26.30;56.70
22098;DHT22;11215;51.938;8.464;2022-07-21T06:26:28;26.20;57.10
22098;DHT22;11215;51.938;8.464;2022-07-21T06:28:54;26.00;57.30
22098;DHT22;11215;51.938;8.464;2022-07-21T06:31:20;26.00;57.50
22098;DHT22;11215;51.938;8.464;2022-07-21T06:33:46;25.80;57.60
22098;DHT22;11215;51.938;8.464;2022-07-21T06:36:11;25.80;58.00
22098;DHT22;11215;51.938;8.464;2022-07-21T06:39:20;25.70;58.20
22098;DHT22;11215;51.938;8.464;2022-07-21T06:44:47;25.60;58.90
22098;DHT22;11215;51.938;8.464;2022-07-21T06:47:38;25.50;59.30
22098;DHT22;11215;51.938;8.464;2022-07-21T06:50:14;25.50;59.30
22098;DHT22;11215;51.938;8.464;2022-07-21T06:53:02;25.50;59.10
22098;DHT22;11215;51.938;8.464;2022-07-21T06:55:56;25.50;59.90
22098;DHT22;11215;51.938;8.464;2022-07-21T06:58:34;25.50;59.80
22098;DHT22;11215;51.938;8.464;2022-07-21T07:01:07;25.50;59.20
22098;DHT22;11215;51.938;8.464;2022-07-21T07:03:46;25.50;59.20
22098;DHT22;11215;51.938;8.464;2022-07-21T07:06:38;25.50;59.70
22098;DHT22;11215;51.938;8.464;2022-07-21T07:09:24;25.40;59.50
22098;DHT22;11215;51.938;8.464;2022-07-21T07:12:03;25.50;59.40
22098;DHT22;11215;51.938;8.464;2022-07-21T07:14:36;25.50;59.70
22098;DHT22;11215;51.938;8.464;2022-07-21T07:17:23;25.40;59.10
22098;DHT22;11215;51.938;8.464;2022-07-21T07:19:54;25.40;59.80
22098;DHT22;11215;51.938;8.464;2022-07-21T07:22:31;25.40;59.50
22098;DHT22;11215;51.938;8.464;2022-07-21T07:25:06;25.40;59.40
22098;DHT22;11215;51.938;8.464;2022-07-21T07:27:35;25.40;59.70
22098;DHT22;11215;51.938;8.464;2022-07-21T07:30:09;25.40;59.20
22098;DHT22;11215;51.938;8.464;2022-07-21T07:32:55;25.40;59.80
22098;DHT22;11215;51.938;8.464;2022-07-21T07:35:21;25.40;59.40
22098;DHT22;11215;51.938;8.464;2022-07-21T07:37:49;25.30;59.10
22098;DHT22;11215;51.938;8.464;2022-07-21T07:40:21;25.30;59.90
22098;DHT22;11215;51.938;8.464;2022-07-21T07:42:47;25.30;59.40
22098;DHT22;11215;51.938;8.464;2022-07-21T07:45:15;25.30;59.30
22098;DHT22;11215;51.938;8.464;2022-07-21T07:47:41;25.20;59.50
22098;DHT22;11215;51.938;8.464;2022-07-21T07:50:09;25.20;59.70
22098;DHT22;11215;51.938;8.464;2022-07-21T07:52:36;25.20;60.00
22098;DHT22;11215;51.938;8.464;2022-07-21T07:55:03;25.20;60.00
22098;DHT22;11215;51.938;8.464;2022-07-21T07:57:32;25.20;60.00
22098;DHT22;11215;51.938;8.464;2022-07-21T07:59:58;25.20;60.20
22098;DHT22;11215;51.938;8.464;2022-07-21T08:02:24;25.20;60.20
22098;DHT22;11215;51.938;8.464;2022-07-21T08:04:50;25.20;60.30
22098;DHT22;11215;51.938;8.464;2022-07-21T08:07:18;25.20;60.30
22098;DHT22;11215;51.938;8.464;2022-07-21T08:09:43;25.30;60.40
22098;DHT22;11215;51.938;8.464;2022-07-21T08:12:12;25.30;60.10
22098;DHT22;11215;51.938;8.464;2022-07-21T08:14:40;25.40;60.50
22098;DHT22;11215;51.938;8.464;2022-07-21T08:17:06;25.30;60.20
22098;DHT22;11215;51.938;8.464;2022-07-21T08:19:32;25.40;60.20
22098;DHT22;11215;51.938;8.464;2022-07-21T08:21:57;25.40;60.30
22098;DHT22;11215;51.938;8.464;2022-07-21T08:24:23;25.40;60.80
22098;DHT22;11215;51.938;8.464;2022-07-21T08:26:49;25.50;61.00
22098;DHT22;11215;51.938;8.464;2022-07-21T08:29:14;25.50;61.20
22098;DHT22;11215;51.938;8.464;2022-07-21T08:31:40;25.50;60.90
22098;DHT22;11215;51.938;8.464;2022-07-21T08:34:05;25.60;61.00
22098;DHT22;11215;51.938;8.464;2022-07-21T08:36:31;25.70;60.70
22098;DHT22;11215;51.938;8.464;2022-07-21T08:38:57;25.70;60.60
22098;DHT22;11215;51.938;8.464;2022-07-21T08:44:51;25.80;61.30
22098;DHT22;11215;51.938;8.464;2022-07-21T08:47:17;25.90;60.30
22098;DHT22;11215;51.938;8.464;2022-07-21T08:49:45;26.00;60.60
22098;DHT22;11215;51.938;8.464;2022-07-21T08:52:11;26.00;60.60
22098;DHT22;11215;51.938;8.464;2022-07-21T08:54:37;26.10;60.20
22098;DHT22;11215;51.938;8.464;2022-07-21T08:57:02;26.20;60.20
22098;DHT22;11215;51.938;8.464;2022-07-21T08:59:28;26.20;60.30
22098;DHT22;11215;51.938;8.464;2022-07-21T09:01:54;26.30;59.90
22098;DHT22;11215;51.938;8.464;2022-07-21T09:04:31;26.30;59.60
22098;DHT22;11215;51.938;8.464;2022-07-21T09:07:06;26.30;59.70
22098;DHT22;11215;51.938;8.464;2022-07-21T09:09:35;26.30;59.80
22098;DHT22;11215;51.938;8.464;2022-07-21T09:12:03;26.40;58.90
22098;DHT22;11215;51.938;8.464;2022-07-21T09:14:33;26.30;58.80
22098;DHT22;11215;51.938;8.464;2022-07-21T09:17:01;26.40;58.70
22098;DHT22;11215;51.938;8.464;2022-07-21T09:19:32;26.40;58.30
22098;DHT22;11215;51.938;8.464;2022-07-21T09:22:02;26.40;58.00
22098;DHT22;11215;51.938;8.464;2022-07-21T09:24:34;26.30;58.50
22098;DHT22;11215;51.938;8.464;2022-07-21T09:27:22;26.30;58.30
22098;DHT22;11215;51.938;8.464;2022-07-21T09:29:49;26.40;59.70
22098;DHT22;11215;51.938;8.464;2022-07-21T09:32:22;26.40;59.00
22098;DHT22;11215;51.938;8.464;2022-07-21T09:34:54;26.40;58.90
22098;DHT22;11215;51.938;8.464;2022-07-21T09:37:21;26.50;59.30
22098;DHT22;11215;51.938;8.464;2022-07-21T09:42:31;26.50;59.10
22098;DHT22;11215;51.938;8.464;2022-07-21T09:44:59;26.60;58.60
22098;DHT22;11215;51.938;8.464;2022-07-21T09:47:28;26.60;58.60
22098;DHT22;11215;51.938;8.464;2022-07-21T09:49:56;26.70;58.70
22098;DHT22;11215;51.938;8.464;2022-07-21T09:54:56;26.70;58.60
22098;DHT22;11215;51.938;8.464;2022-07-21T09:57:21;26.70;58.30
22098;DHT22;11215;51.938;8.464;2022-07-21T09:59:49;26.70;58.20
22098;DHT22;11215;51.938;8.464;2022-07-21T10:02:27;26.70;58.20
22098;DHT22;11215;51.938;8.464;2022-07-21T10:05:06;26.80;58.50
22098;DHT22;11215;51.938;8.464;2022-07-21T10:07:35;26.80;58.50
22098;DHT22;11215;51.938;8.464;2022-07-21T10:10:01;26.80;58.40
22098;DHT22;11215;51.938;8.464;2022-07-21T10:12:27;26.70;58.20
22098;DHT22;11215;51.938;8.464;2022-07-21T10:14:53;26.70;58.40
22098;DHT22;11215;51.938;8.464;2022-07-21T10:17:20;26.70;58.50
22098;DHT22;11215;51.938;8.464;2022-07-21T10:25:25;26.70;59.50
22098;DHT22;11215;51.938;8.464;2022-07-21T10:28:13;26.70;59.20
22098;DHT22;11215;51.938;8.464;2022-07-21T10:30:40;26.70;60.00
22098;DHT22;11215;51.938;8.464;2022-07-21T10:33:06;26.70;59.80
22098;DHT22;11215;51.938;8.464;2022-07-21T10:35:32;26.80;60.00
22098;DHT22;11215;51.938;8.464;2022-07-21T10:37:59;26.80;59.90
22098;DHT22;11215;51.938;8.464;2022-07-21T10:45:38;26.90;59.40
22098;DHT22;11215;51.938;8.464;2022-07-21T10:48:06;26.90;59.30
22098;DHT22;11215;51.938;8.464;2022-07-21T10:50:37;27.00;59.50
22098;DHT22;11215;51.938;8.464;2022-07-21T10:53:05;27.00;59.50
22098;DHT22;11215;51.938;8.464;2022-07-21T10:55:37;27.00;59.50
22098;DHT22;11215;51.938;8.464;2022-07-21T11:01:03;27.10;59.10
22098;DHT22;11215;51.938;8.464;2022-07-21T11:03:38;27.10;59.10
22098;DHT22;11215;51.938;8.464;2022-07-21T11:06:25;27.10;59.00
22098;DHT22;11215;51.938;8.464;2022-07-21T11:11:24;27.20;58.70
22098;DHT22;11215;51.938;8.464;2022-07-21T11:14:16;27.20;58.20
22098;DHT22;11215;51.938;8.464;2022-07-21T11:19:42;27.20;57.80
22098;DHT22;11215;51.938;8.464;2022-07-21T11:22:27;27.20;58.00
22098;DHT22;11215;51.938;8.464;2022-07-21T11:25:05;27.20;57.80
22098;DHT22;11215;51.938;8.464;2022-07-21T11:27:33;27.20;58.20
22098;DHT22;11215;51.938;8.464;2022-07-21T11:30:04;27.20;58.40
22098;DHT22;11215;51.938;8.464;2022-07-21T11:32:30;27.20;58.10
22098;DHT22;11215;51.938;8.464;2022-07-21T11:34:57;27.30;58.30
22098;DHT22;11215;51.938;8.464;2022-07-21T11:37:37;27.30;57.70
22098;DHT22;11215;51.938;8.464;2022-07-21T11:40:08;27.40;57.80
22098;DHT22;11215;51.938;8.464;2022-07-21T11:42:34;27.50;56.80
22098;DHT22;11215;51.938;8.464;2022-07-21T11:45:00;27.50;56.70
22098;DHT22;11215;51.938;8.464;2022-07-21T11:47:25;27.50;56.70
22098;DHT22;11215;51.938;8.464;2022-07-21T11:49:59;27.50;56.70
22098;DHT22;11215;51.938;8.464;2022-07-21T11:52:34;27.50;57.10
22098;DHT22;11215;51.938;8.464;2022-07-21T11:55:04;27.50;57.40
22098;DHT22;11215;51.938;8.464;2022-07-21T11:57:30;27.40;56.40
22098;DHT22;11215;51.938;8.464;2022-07-21T11:59:58;27.40;56.50
22098;DHT22;11215;51.938;8.464;2022-07-21T12:02:28;27.30;57.00
22098;DHT22;11215;51.938;8.464;2022-07-21T12:04:57;27.30;57.60
22098;DHT22;11215;51.938;8.464;2022-07-21T12:07:41;27.20;57.30
22098;DHT22;11215;51.938;8.464;2022-07-21T12:10:13;27.20;57.20
22098;DHT22;11215;51.938;8.464;2022-07-21T12:12:44;27.10;57.30
22098;DHT22;11215;51.938;8.464;2022-07-21T12:15:11;27.10;58.20
22098;DHT22;11215;51.938;8.464;2022-07-21T12:17:40;27.10;58.80
22098;DHT22;11215;51.938;8.464;2022-07-21T12:20:07;27.20;59.30
22098;DHT22;11215;51.938;8.464;2022-07-21T12:22:42;27.20;59.10
22098;DHT22;11215;51.938;8.464;2022-07-21T12:25:10;27.30;58.80
22098;DHT22;11215;51.938;8.464;2022-07-21T12:27:38;27.30;57.50
22098;DHT22;11215;51.938;8.464;2022-07-21T12:30:07;27.40;56.80
22098;DHT22;11215;51.938;8.464;2022-07-21T12:32:48;27.40;57.30
22098;DHT22;11215;51.938;8.464;2022-07-21T12:35:26;27.40;57.90
22098;DHT22;11215;51.938;8.464;2022-07-21T12:37:56;27.40;57.80
22098;DHT22;11215;51.938;8.464;2022-07-21T12:40:22;27.40;56.20
22098;DHT22;11215;51.938;8.464;2022-07-21T12:42:48;27.40;55.90
22098;DHT22;11215;51.938;8.464;2022-07-21T12:45:20;27.30;55.40
22098;DHT22;11215;51.938;8.464;2022-07-21T12:48:08;27.30;55.20
22098;DHT22;11215;51.938;8.464;2022-07-21T12:50:35;27.30;55.60
22098;DHT22;11215;51.938;8.464;2022-07-21T12:53:01;27.30;55.40
22098;DHT22;11215;51.938;8.464;2022-07-21T12:55:28;27.20;55.30
22098;DHT22;11215;51.938;8.464;2022-07-21T12:57:53;27.20;55.20
22098;DHT22;11215;51.938;8.464;2022-07-21T13:00:19;27.30;54.90
22098;DHT22;11215;51.938;8.464;2022-07-21T13:02:50;27.30;54.90
22098;DHT22;11215;51.938;8.464;2022-07-21T13:05:16;27.30;55.50
22098;DHT22;11215;51.938;8.464;2022-07-21T13:07:42;27.40;54.80
22098;DHT22;11215;51.938;8.464;2022-07-21T13:10:08;27.50;55.60
22098;DHT22;11215;51.938;8.464;2022-07-21T13:12:34;27.50;55.90
22098;DHT22;11215;51.938;8.464;2022-07-21T13:14:59;27.60;55.70
22098;DHT22;11215;51.938;8.464;2022-07-21T13:17:25;27.70;55.30
22098;DHT22;11215;51.938;8.464;2022-07-21T13:19:50;27.60;55.10
22098;DHT22;11215;51.938;8.464;2022-07-21T13:22:16;27.70;54.40
22098;DHT22;11215;51.938;8.464;2022-07-21T13:24:42;27.60;54.60
22098;DHT22;11215;51.938;8.464;2022-07-21T13:27:07;27.70;54.70
22098;DHT22;11215;51.938;8.464;2022-07-21T13:29:33;27.60;54.80
22098;DHT22;11215;51.938;8.464;2022-07-21T13:31:59;27.60;55.00
22098;DHT22;11215;51.938;8.464;2022-07-21T13:34:24;27.50;54.60
22098;DHT22;11215;51.938;8.464;2022-07-21T13:36:50;27.40;54.80
22098;DHT22;11215;51.938;8.464;2022-07-21T13:39:16;27.40;55.00
22098;DHT22;11215;51.938;8.464;2022-07-21T13:41:41;27.30;55.10
22098;DHT22;11215;51.938;8.464;2022-07-21T13:44:07;27.30;55.10
22098;DHT22;11215;51.938;8.464;2022-07-21T13:46:33;27.20;55.00
22098;DHT22;11215;51.938;8.464;2022-07-21T13:48:58;27.10;55.00
22098;DHT22;11215;51.938;8.464;2022-07-21T13:51:24;27.00;55.80
22098;DHT22;11215;51.938;8.464;2022-07-21T13:53:51;26.90;56.00
22098;DHT22;11215;51.938;8.464;2022-07-21T13:56:18;26.90;55.80
22098;DHT22;11215;51.938;8.464;2022-07-21T13:58:44;26.80;55.90
22098;DHT22;11215;51.938;8.464;2022-07-21T14:01:11;26.80;56.50
22098;DHT22;11215;51.938;8.464;2022-07-21T14:03:38;26.80;56.90
22098;DHT22;11215;51.938;8.464;2022-07-21T14:06:04;26.80;57.50
22098;DHT22;11215;51.938;8.464;2022-07-21T14:08:29;26.90;57.70
22098;DHT22;11215;51.938;8.464;2022-07-21T14:10:55;27.00;57.50
22098;DHT22;11215;51.938;8.464;2022-07-21T14:13:21;27.00;57.10
22098;DHT22;11215;51.938;8.464;2022-07-21T14:15:47;27.10;57.00
22098;DHT22;11215;51.938;8.464;2022-07-21T14:18:12;27.10;57.20
22098;DHT22;11215;51.938;8.464;2022-07-21T14:20:39;27.20;57.10
22098;DHT22;11215;51.938;8.464;2022-07-21T14:23:04;27.20;56.90
22098;DHT22;11215;51.938;8.464;2022-07-21T14:25:30;27.20;57.00
22098;DHT22;11215;51.938;8.464;2022-07-21T14:27:57;27.30;56.70
22098;DHT22;11215;51.938;8.464;2022-07-21T14:30:25;27.30;56.40
22098;DHT22;11215;51.938;8.464;2022-07-21T14:32:51;27.30;56.50
22098;DHT22;11215;51.938;8.464;2022-07-21T14:35:17;27.30;56.50
22098;DHT22;11215;51.938;8.464;2022-07-21T14:37:45;27.40;55.90
22098;DHT22;11215;51.938;8.464;2022-07-21T14:40:12;27.40;56.10
22098;DHT22;11215;51.938;8.464;2022-07-21T14:42:38;27.40;56.10
22098;DHT22;11215;51.938;8.464;2022-07-21T14:45:05;27.40;56.00
22098;DHT22;11215;51.938;8.464;2022-07-21T14:47:31;27.40;55.90
22098;DHT22;11215;51.938;8.464;2022-07-21T14:49:56;27.40;55.80
22098;DHT22;11215;51.938;8.464;2022-07-21T14:52:22;27.40;55.80
22098;DHT22;11215;51.938;8.464;2022-07-21T14:54:48;27.40;56.00
22098;DHT22;11215;51.938;8.464;2022-07-21T14:57:14;27.40;56.00
22098;DHT22;11215;51.938;8.464;2022-07-21T14:59:40;27.40;55.90
22098;DHT22;11215;51.938;8.464;2022-07-21T15:02:06;27.40;55.80
22098;DHT22;11215;51.938;8.464;2022-07-21T15:04:32;27.40;55.20
22098;DHT22;11215;51.938;8.464;2022-07-21T15:06:58;27.30;55.30
22098;DHT22;11215;51.938;8.464;2022-07-21T15:09:23;27.30;55.50
22098;DHT22;11215;51.938;8.464;2022-07-21T15:11:49;27.30;55.60
22098;DHT22;11215;51.938;8.464;2022-07-21T15:14:15;27.30;55.80
22098;DHT22;11215;51.938;8.464;2022-07-21T15:16:41;27.30;55.60
22098;DHT22;11215;51.938;8.464;2022-07-21T15:19:06;27.30;55.50
22098;DHT22;11215;51.938;8.464;2022-07-21T15:21:32;27.20;55.60
22098;DHT22;11215;51.938;8.464;2022-07-21T15:23:58;27.20;55.40
22098;DHT22;11215;51.938;8.464;2022-07-21T15:26:24;27.10;55.50
22098;DHT22;11215;51.938;8.464;2022-07-21T15:28:49;27.10;55.50
22098;DHT22;11215;51.938;8.464;2022-07-21T15:31:15;27.10;55.30
22098;DHT22;11215;51.938;8.464;2022-07-21T15:33:40;27.10;55.50
22098;DHT22;11215;51.938;8.464;2022-07-21T15:36:06;27.00;55.60
22098;DHT22;11215;51.938;8.464;2022-07-21T15:38:32;27.00;55.90
22098;DHT22;11215;51.938;8.464;2022-07-21T15:40:58;27.00;55.80
22098;DHT22;11215;51.938;8.464;2022-07-21T15:43:23;26.90;55.40
22098;DHT22;11215;51.938;8.464;2022-07-21T15:45:49;26.90;56.00
22098;DHT22;11215;51.938;8.464;2022-07-21T15:48:15;26.90;56.00
22098;DHT22;11215;51.938;8.464;2022-07-21T15:50:40;26.80;55.90
22098;DHT22;11215;51.938;8.464;2022-07-21T15:53:07;26.80;56.10
22098;DHT22;11215;51.938;8.464;2022-07-21T15:55:33;26.80;56.30
22098;DHT22;11215;51.938;8.464;2022-07-21T15:57:59;26.70;56.30
22098;DHT22;11215;51.938;8.464;2022-07-21T16:00:25;26.70;56.50
22098;DHT22;11215;51.938;8.464;2022-07-21T16:02:51;26.70;56.80
22098;DHT22;11215;51.938;8.464;2022-07-21T16:05:20;26.70;56.70